Time;durP1;ratioP1;P1;durP2;ratioP2;P2;SDS_P1;SDS_P2;PMS_P1;PMS_P2;Temp;Humidity;BMP_temperature;BMP_pressure;BME280_temperature;BME280_humidity;BME280_pressure;Samples;Min_cycle;Max_cycle;Signal;HPM_P1;HPM_P2
2023/02/02 00:01:16;;;;;;;;;4.00;2.00;;;;;7.75;100.00;102677.72;5077096;28;45383;-82
2023/02/02 00:03:41;;;;;;;;;6.50;2.00;;;;;7.71;100.00;102675.94;5059114;28;45459;-82
2023/02/02 00:06:06;;;;;;;;;2.00;2.00;;;;;7.69;100.00;102682.81;5058873;28;45412;-81
2023/02/02 00:08:34;;;;;;;;;3.00;3.00;;;;;7.67;100.00;102683.63;5076934;28;52129;-82
2023/02/02 00:10:59;;;;;;;;;5.00;2.00;;;;;7.62;100.00;102683.59;5077064;27;47463;-82
2023/02/02 00:13:25;;;;;;;;;3.50;2.50;;;;;7.62;100.00;102680.13;5057866;28;70211;-81
2023/02/02 00:15:52;;;;;;;;;6.25;3.00;;;;;7.63;100.00;102684.44;5059194;28;45400;-81
2023/02/02 00:18:17;;;;;;;;;3.50;1.75;;;;;7.62;100.00;102685.31;5076845;27;45382;-81
2023/02/02 00:20:44;;;;;;;;;6.50;2.00;;;;;7.60;100.00;102685.28;5076810;28;46497;-81
2023/02/02 00:23:09;;;;;;;;;4.00;2.00;;;;;7.59;100.00;102680.06;5077066;27;45374;-81
2023/02/02 00:25:34;;;;;;;;;5.25;4.00;;;;;7.56;100.00;102681.78;5058448;28;52601;-81
2023/02/02 00:28:00;;;;;;;;;2.00;2.00;;;;;7.51;100.00;102686.00;5058203;28;49789;-81
2023/02/02 00:30:25;;;;;;;;;5.00;2.00;;;;;7.49;100.00;102679.94;5058718;28;47564;-81
2023/02/02 00:32:51;;;;;;;;;4.00;1.75;;;;;7.46;100.00;102679.88;5076791;27;45459;-81
2023/02/02 00:35:17;;;;;;;;;7.50;2.00;;;;;7.41;100.00;102676.38;5058873;28;45339;-81
2023/02/02 00:37:42;;;;;;;;;4.50;2.00;;;;;7.39;100.00;102672.84;5058741;28;45404;-81
2023/02/02 00:40:09;;;;;;;;;4.75;1.25;;;;;7.36;100.00;102671.09;5076031;28;68104;-81
2023/02/02 00:42:34;;;;;;;;;3.50;2.00;;;;;7.36;100.00;102672.84;5076162;27;45461;-81
2023/02/02 00:45:16;;;;;;;;;3.50;1.50;;;;;7.35;100.00;102668.47;5075999;28;63436;-82
2023/02/02 00:47:47;;;;;;;;;6.00;2.00;;;;;7.34;100.00;102665.03;5076608;28;45463;-82
2023/02/02 00:50:15;;;;;;;;;5.00;2.00;;;;;7.35;100.00;102671.06;5041395;28;47220;-81
2023/02/02 00:52:41;;;;;;;;;4.75;2.00;;;;;7.32;100.00;102679.69;5076650;27;45349;-81
2023/02/02 00:55:10;;;;;;;;;1.00;1.00;;;;;7.30;100.00;102668.44;5041740;28;45411;-81
2023/02/02 00:57:35;;;;;;;;;5.25;1.50;;;;;7.28;100.00;102672.72;5057839;28;45486;-80
2023/02/02 01:00:01;;;;;;;;;4.00;1.00;;;;;7.27;100.00;102677.88;5076381;27;45407;-81
2023/02/02 01:02:26;;;;;;;;;2.00;1.00;;;;;7.26;100.00;102669.22;5075574;28;63795;-81
2023/02/02 01:04:51;;;;;;;;;8.50;2.00;;;;;7.25;100.00;102658.84;5075951;28;54850;-81
2023/02/02 01:07:17;;;;;;;;;3.50;3.00;;;;;7.25;100.00;102659.69;5075720;28;62157;-82
2023/02/02 01:09:42;;;;;;;;;4.00;1.00;;;;;7.23;100.00;102656.22;5040467;28;69210;-82
2023/02/02 01:12:07;;;;;;;;;4.00;2.00;;;;;7.24;100.00;102657.94;5075170;27;62990;-81
2023/02/02 01:14:33;;;;;;;;;3.25;1.50;;;;;7.22;100.00;102651.00;5075799;28;61458;-81
2023/02/02 01:16:58;;;;;;;;;7.25;2.00;;;;;7.17;100.00;102646.63;5075335;28;67088;-81
2023/02/02 01:19:23;;;;;;;;;1.00;1.00;;;;;7.17;100.00;102644.06;5074426;27;69992;-81
2023/02/02 01:21:50;;;;;;;;;2.50;1.75;;;;;7.16;100.00;102642.28;5075417;28;59021;-81
2023/02/02 01:24:15;;;;;;;;;5.75;2.50;;;;;7.14;100.00;102636.22;5076309;28;45514;-81
2023/02/02 01:26:40;;;;;;;;;6.50;2.50;;;;;7.16;100.00;102642.28;5057199;28;58073;-81
2023/02/02 01:29:06;;;;;;;;;7.00;2.50;;;;;7.18;100.00;102640.59;5075991;28;46381;-82
2023/02/02 01:31:31;;;;;;;;;3.75;2.00;;;;;7.23;100.00;102648.44;5076018;28;45262;-81
2023/02/02 01:33:56;;;;;;;;;2.00;2.00;;;;;7.23;100.00;102651.03;5057190;27;58491;-81
2023/02/02 01:36:23;;;;;;;;;4.00;1.50;;;;;7.28;100.00;102658.88;5057322;28;60346;-82
2023/02/02 01:38:49;;;;;;;;;3.50;1.25;;;;;7.29;100.00;102655.44;5057682;28;47107;-81
2023/02/02 01:41:23;;;;;;;;;4.00;1.00;;;;;7.31;100.00;102656.34;5075552;28;45962;-81
2023/02/02 01:43:56;;;;;;;;;6.25;2.00;;;;;7.32;100.00;102663.28;5057971;28;45419;-81
2023/02/02 01:46:30;;;;;;;;;4.50;4.00;;;;;7.32;100.00;102678.81;5075678;28;45518;-81
2023/02/02 01:49:06;;;;;;;;;6.00;2.00;;;;;7.29;100.00;102676.16;5040631;28;47239;-81
2023/02/02 01:51:39;;;;;;;;;2.00;2.00;;;;;7.28;100.00;102675.31;5057471;28;45356;-81
2023/02/02 01:54:08;;;;;;;;;5.25;1.25;;;;;7.28;100.00;102669.22;5057483;28;45535;-81
2023/02/02 01:56:40;;;;;;;;;4.75;2.00;;;;;7.28;100.00;102677.00;5057848;28;45532;-81
2023/02/02 01:59:05;;;;;;;;;2.00;2.00;;;;;7.26;100.00;102660.56;5040672;28;47026;-82
2023/02/02 02:01:31;;;;;;;;;4.25;1.50;;;;;7.24;100.00;102665.72;5056714;27;65572;-82
2023/02/02 02:03:56;;;;;;;;;2.00;2.00;;;;;7.17;100.00;102666.50;5075105;27;60357;-81
2023/02/02 02:06:24;;;;;;;;;3.00;2.00;;;;;7.17;100.00;102666.50;5057636;27;45292;-81
2023/02/02 02:08:59;;;;;;;;;0.75;0.75;;;;;7.14;100.00;102667.31;5057299;28;45511;-82
2023/02/02 02:11:25;;;;;;;;;6.25;1.00;;;;;7.12;100.00;102673.31;5075406;28;45309;-81
2023/02/02 02:16:53;;;;;;;;;2.00;2.00;;;;;7.12;100.00;102675.91;5075532;28;45421;-82
2023/02/02 02:26:32;;;;;;;;;2.75;0.50;;;;;7.16;100.00;102680.28;5060049;28;45392;-82
2023/02/02 02:29:32;;;;;;;;;1.00;1.00;;;;;7.12;100.00;102676.75;5056921;28;45617;-81
2023/02/02 02:32:16;;;;;;;;;6.00;3.00;;;;;7.11;100.00;102684.50;5078606;27;45557;-81
2023/02/02 02:35:01;;;;;;;;;4.00;1.75;;;;;7.09;100.00;102675.84;5066140;28;46016;-82
2023/02/02 02:37:37;;;;;;;;;2.00;2.00;;;;;7.06;100.00;102684.44;5060289;28;45440;-81
2023/02/02 02:40:06;;;;;;;;;4.00;1.25;;;;;7.05;100.00;102689.59;5060784;28;45399;-82
2023/02/02 02:42:36;;;;;;;;;2.50;1.75;;;;;7.07;100.00;102687.91;5078486;28;45543;-81
2023/02/02 02:45:03;;;;;;;;;2.00;1.25;;;;;7.06;100.00;102683.56;5060629;27;45733;-81
2023/02/02 02:47:30;;;;;;;;;4.00;1.25;;;;;7.05;100.00;102685.28;5060184;27;45303;-81
2023/02/02 02:49:55;;;;;;;;;1.50;1.50;;;;;7.05;100.00;102682.69;5060491;28;45624;-81
2023/02/02 02:52:21;;;;;;;;;3.00;2.00;;;;;7.04;100.00;102680.97;5059045;28;66829;-82
2023/02/02 02:54:49;;;;;;;;;1.00;1.00;;;;;7.01;100.00;102677.44;5077993;27;55010;-81
2023/02/02 02:57:14;;;;;;;;;2.00;2.00;;;;;6.98;100.00;102683.41;5043544;28;45460;-81
2023/02/02 02:59:45;;;;;;;;;5.00;2.00;;;;;6.93;100.00;102682.50;5078591;28;45489;-81
2023/02/02 03:02:29;;;;;;;;;3.00;1.00;;;;;6.92;100.00;102681.59;5078197;27;46438;-81
2023/02/02 03:05:01;;;;;;;;;1.00;1.00;;;;;6.89;100.00;102670.31;5060155;28;45771;-81
2023/02/02 03:07:34;;;;;;;;;0.75;0.75;;;;;6.86;100.00;102670.28;5078004;27;45281;-81
2023/02/02 03:10:01;;;;;;;;;3.00;1.25;;;;;6.85;100.00;102673.72;5043285;28;45381;-81
2023/02/02 03:12:27;;;;;;;;;2.00;1.25;;;;;6.85;100.00;102676.28;5059993;28;46356;-81
2023/02/02 03:14:52;;;;;;;;;2.00;1.75;;;;;6.82;100.00;102674.53;5077660;27;56910;-82
2023/02/02 03:17:18;;;;;;;;;1.00;1.00;;;;;6.82;100.00;102676.25;5028463;28;64900;-82
2023/02/02 03:19:43;;;;;;;;;4.00;1.00;;;;;6.79;100.00;102677.06;4974408;28;62822;-82
2023/02/02 03:22:08;;;;;;;;;1.00;1.00;;;;;6.78;100.00;102675.34;4972782;28;65039;-82
2023/02/02 03:24:33;;;;;;;;;3.00;2.00;;;;;6.78;100.00;102681.38;4973243;28;60973;-82
2023/02/02 03:26:59;;;;;;;;;5.25;2.50;;;;;6.78;100.00;102678.78;4974356;28;59347;-83
2023/02/02 03:29:24;;;;;;;;;1.75;1.00;;;;;6.78;100.00;102677.91;4973887;28;45231;-82
2023/02/02 03:31:50;;;;;;;;;3.00;3.00;;;;;6.78;100.00;102686.56;4973504;28;48016;-82
2023/02/02 03:34:15;;;;;;;;;4.00;1.00;;;;;6.77;100.00;102682.19;4972852;28;63535;-83
2023/02/02 03:36:40;;;;;;;;;0.75;0.75;;;;;6.76;100.00;102688.25;4974618;28;45427;-82
2023/02/02 03:39:06;;;;;;;;;4.00;1.25;;;;;6.74;100.00;102678.69;4974193;28;65806;-82
2023/02/02 03:41:31;;;;;;;;;0.00;0.00;;;;;6.72;100.00;102689.03;4972234;28;66887;-82
2023/02/02 03:43:56;;;;;;;;;4.50;1.75;;;;;6.65;100.00;102687.19;4972899;28;65043;-83
2023/02/02 03:46:22;;;;;;;;;1.00;1.00;;;;;6.63;100.00;102696.63;4972871;28;62777;-82
2023/02/02 03:48:47;;;;;;;;;1.00;1.00;;;;;6.64;100.00;102692.31;4974166;28;60237;-82
2023/02/02 03:51:13;;;;;;;;;3.50;2.00;;;;;6.65;100.00;102697.53;4956906;28;48156;-82
2023/02/02 03:53:43;;;;;;;;;2.25;1.50;;;;;6.67;100.00;102703.59;4974824;28;45377;-82
2023/02/02 03:56:08;;;;;;;;;4.00;1.00;;;;;6.72;100.00;102701.97;4974827;28;45334;-83
2023/02/02 03:58:33;;;;;;;;;4.75;1.75;;;;;6.80;100.00;102702.09;4974712;28;45462;-82
2023/02/02 04:01:04;;;;;;;;;2.00;1.00;;;;;6.88;100.00;102700.53;4973889;28;63288;-82
2023/02/02 04:03:29;;;;;;;;;1.75;1.75;;;;;6.96;100.00;102706.72;4974701;28;45791;-82
2023/02/02 04:05:55;;;;;;;;;4.50;1.50;;;;;7.02;100.00;102708.53;4973755;28;57359;-82
2023/02/02 04:08:20;;;;;;;;;5.25;1.00;;;;;7.07;100.00;102706.03;4973779;28;63843;-82
2023/02/02 04:10:45;;;;;;;;;1.00;1.00;;;;;7.12;100.00;102709.56;4972378;28;67462;-83
2023/02/02 04:13:11;;;;;;;;;4.00;0.75;;;;;7.16;100.00;102703.59;4973286;28;45397;-82
2023/02/02 04:15:36;;;;;;;;;2.00;1.25;;;;;7.17;100.00;102703.63;4972550;28;62963;-82
2023/02/02 04:18:01;;;;;;;;;1.75;1.00;;;;;7.23;100.00;102707.16;5038591;27;51154;-82
2023/02/02 04:20:27;;;;;;;;;2.25;1.00;;;;;7.28;100.00;102708.09;5076628;28;47307;-82
2023/02/02 04:22:53;;;;;;;;;4.00;1.00;;;;;7.32;100.00;102710.78;5076413;27;65841;-81
2023/02/02 04:25:18;;;;;;;;;2.75;1.00;;;;;7.37;100.00;102708.22;5042307;28;45317;-82
2023/02/02 04:27:44;;;;;;;;;5.00;1.00;;;;;7.41;100.00;102712.66;5058347;28;58522;-82
2023/02/02 04:30:10;;;;;;;;;1.50;1.50;;;;;7.41;100.00;102711.75;5058708;27;46012;-82
2023/02/02 04:32:35;;;;;;;;;1.00;1.00;;;;;7.42;100.00;102710.91;5076949;28;45706;-82
2023/02/02 04:35:00;;;;;;;;;0.75;0.75;;;;;7.44;100.00;102712.66;5076310;27;47950;-82
2023/02/02 04:37:26;;;;;;;;;2.00;1.00;;;;;7.49;100.00;102717.94;5058055;28;65652;-82
2023/02/02 04:39:52;;;;;;;;;2.00;1.00;;;;;7.53;100.00;102704.19;5076843;28;48740;-82
2023/02/02 04:42:18;;;;;;;;;5.00;1.00;;;;;7.53;100.00;102705.03;5058853;28;45474;-82
2023/02/02 04:44:44;;;;;;;;;1.75;1.00;;;;;7.56;100.00;102706.81;5076129;27;60653;-82
2023/02/02 04:47:10;;;;;;;;;1.50;1.00;;;;;7.57;100.00;102708.56;5058691;28;45481;-83
2023/02/02 04:49:35;;;;;;;;;2.00;1.00;;;;;7.59;100.00;102708.59;5075858;27;61323;-82
2023/02/02 04:52:00;;;;;;;;;1.75;1.75;;;;;7.60;100.00;102707.75;5057558;28;67971;-82
2023/02/02 04:54:26;;;;;;;;;0.00;0.00;;;;;7.60;100.00;102713.78;5075097;28;59821;-83
2023/02/02 04:56:51;;;;;;;;;0.00;0.00;;;;;7.59;100.00;102704.25;5076721;27;45425;-82
2023/02/02 04:59:16;;;;;;;;;2.00;1.00;;;;;7.59;100.00;102709.44;5075858;27;64257;-82
2023/02/02 05:01:42;;;;;;;;;2.50;2.00;;;;;7.57;100.00;102718.91;5040866;28;68458;-82
2023/02/02 05:04:07;;;;;;;;;4.00;1.00;;;;;7.58;100.00;102718.09;5057987;28;45792;-82
2023/02/02 05:06:33;;;;;;;;;5.50;2.00;;;;;7.59;100.00;102719.81;5076536;27;45281;-82
2023/02/02 05:08:58;;;;;;;;;4.25;2.00;;;;;7.62;100.00;102719.00;5076134;28;46266;-82
2023/02/02 05:11:24;;;;;;;;;4.75;1.50;;;;;7.65;100.00;102714.75;5076214;28;45296;-82
2023/02/02 05:13:51;;;;;;;;;1.75;1.00;;;;;7.67;100.00;102717.31;5076307;27;45453;-82
2023/02/02 05:16:17;;;;;;;;;4.00;1.00;;;;;7.70;100.00;102722.56;5058264;28;45471;-82
2023/02/02 05:18:47;;;;;;;;;5.00;2.00;;;;;7.68;100.00;102717.34;5075567;27;45630;-82
2023/02/02 05:21:13;;;;;;;;;6.25;1.00;;;;;7.72;100.00;102723.47;5076214;28;45383;-82
2023/02/02 05:23:38;;;;;;;;;5.75;1.00;;;;;7.71;100.00;102725.19;5075615;27;56703;-83
2023/02/02 05:26:03;;;;;;;;;4.25;1.00;;;;;7.73;100.00;102723.50;5075561;27;59116;-83
2023/02/02 05:28:29;;;;;;;;;4.75;1.00;;;;;7.72;100.00;102724.31;5057711;28;48202;-82
2023/02/02 05:30:54;;;;;;;;;2.00;1.00;;;;;7.74;100.00;102726.94;5075723;28;45269;-81
2023/02/02 05:33:20;;;;;;;;;2.00;1.00;;;;;7.75;100.00;102733.88;5076282;27;45721;-82
2023/02/02 05:35:46;;;;;;;;;2.00;2.00;;;;;7.73;100.00;102735.59;5057937;28;45389;-82
2023/02/02 05:38:11;;;;;;;;;1.00;1.00;;;;;7.73;100.00;102739.03;5057865;28;46676;-83
2023/02/02 05:40:37;;;;;;;;;1.00;1.00;;;;;7.72;100.00;102739.88;5075244;28;62365;-82
2023/02/02 05:43:02;;;;;;;;;3.50;1.25;;;;;7.73;100.00;102740.78;5075952;28;45793;-82
2023/02/02 05:45:27;;;;;;;;;5.00;1.75;;;;;7.74;100.00;102734.72;5040638;28;45532;-82
2023/02/02 05:47:54;;;;;;;;;4.75;2.00;;;;;7.75;100.00;102736.47;5075021;27;66602;-82
2023/02/02 05:50:19;;;;;;;;;6.00;1.50;;;;;7.71;100.00;102727.78;5075759;27;45392;-82
2023/02/02 05:52:45;;;;;;;;;1.75;1.50;;;;;7.71;100.00;102726.91;5057204;28;58589;-82
2023/02/02 05:55:10;;;;;;;;;2.00;2.00;;;;;7.74;100.00;102740.81;5040284;28;66225;-82
2023/02/02 05:57:36;;;;;;;;;5.50;2.00;;;;;7.75;100.00;102739.94;5074867;28;69112;-82
2023/02/02 06:00:02;;;;;;;;;7.00;4.00;;;;;7.80;100.00;102749.50;5074618;28;62624;-82
2023/02/02 06:02:27;;;;;;;;;4.25;2.00;;;;;7.80;100.00;102745.19;5057653;28;45369;-82
2023/02/02 06:04:52;;;;;;;;;5.00;2.00;;;;;7.81;100.00;102752.13;5076846;27;55280;-82
2023/02/02 06:07:18;;;;;;;;;1.75;1.00;;;;;7.83;100.00;102749.56;5078648;28;64488;-82
2023/02/02 06:09:43;;;;;;;;;4.75;2.00;;;;;7.86;100.00;102739.22;5061007;28;45436;-82
2023/02/02 06:12:08;;;;;;;;;3.50;1.00;;;;;7.87;100.00;102743.56;5079265;27;45288;-82
2023/02/02 06:14:34;;;;;;;;;6.00;1.00;;;;;7.89;100.00;102744.44;5079100;28;45376;-82
2023/02/02 06:16:59;;;;;;;;;2.00;2.00;;;;;7.92;100.00;102754.88;5040752;28;55790;-83
2023/02/02 06:19:24;;;;;;;;;2.00;0.75;;;;;7.94;100.00;102751.44;4976112;28;45384;-82
2023/02/02 06:21:50;;;;;;;;;5.00;2.00;;;;;7.98;100.00;102743.72;4974206;28;58005;-83
2023/02/02 06:24:15;;;;;;;;;2.00;1.00;;;;;7.97;100.00;102752.31;4974840;28;45342;-82
2023/02/02 06:26:40;;;;;;;;;2.00;2.00;;;;;7.94;100.00;102747.97;4974389;28;56390;-78
2023/02/02 06:29:06;;;;;;;;;1.00;1.00;;;;;7.94;100.00;102748.84;4973489;28;67087;-78
2023/02/02 06:31:32;;;;;;;;;6.00;3.00;;;;;7.92;100.00;102760.06;4975849;28;45410;-78
2023/02/02 06:33:58;;;;;;;;;1.75;1.00;;;;;7.91;100.00;102753.13;4975710;28;45367;-78
2023/02/02 06:36:25;;;;;;;;;5.25;4.00;;;;;7.86;100.00;102755.66;4975762;28;46076;-78
2023/02/02 06:38:51;;;;;;;;;9.00;3.00;;;;;7.87;100.00;102759.13;4975874;28;45807;-78
2023/02/02 06:41:19;;;;;;;;;4.00;1.50;;;;;7.86;100.00;102759.97;4975909;27;45285;-79
2023/02/02 06:43:44;;;;;;;;;7.50;0.75;;;;;7.84;100.00;102764.28;4975754;28;45271;-78
2023/02/02 06:46:10;;;;;;;;;0.75;0.25;;;;;7.83;100.00;102767.69;4975320;28;45395;-78
2023/02/02 06:48:35;;;;;;;;;1.00;1.00;;;;;7.82;100.00;102774.63;4975301;28;51483;-78
2023/02/02 06:51:00;;;;;;;;;6.75;0.00;;;;;7.85;100.00;102773.78;4975737;28;45360;-78
2023/02/02 06:53:26;;;;;;;;;1.75;1.50;;;;;7.85;100.00;102758.22;4974767;28;63977;-78
2023/02/02 06:55:53;;;;;;;;;1.75;1.75;;;;;7.81;100.00;102777.19;4974133;28;46419;-76
2023/02/02 06:58:18;;;;;;;;;5.25;1.00;;;;;7.80;100.00;102773.72;4975280;28;45768;-77
2023/02/02 07:00:44;;;;;;;;;1.00;1.00;;;;;7.82;100.00;102768.53;4972342;28;63717;-77
2023/02/02 07:03:09;;;;;;;;;7.00;2.00;;;;;7.84;100.00;102766.88;4973849;28;64130;-77
2023/02/02 07:05:34;;;;;;;;;5.00;2.50;;;;;7.87;100.00;102767.75;4973895;28;70044;-78
2023/02/02 07:07:59;;;;;;;;;3.50;1.75;;;;;7.90;100.00;102761.75;4974428;28;67444;-78
2023/02/02 07:10:25;;;;;;;;;1.25;1.25;;;;;7.90;100.00;102756.56;4973942;28;65089;-78
2023/02/02 07:12:53;;;;;;;;;1.00;1.00;;;;;7.92;100.00;102767.84;4973313;28;58700;-78
2023/02/02 07:15:18;;;;;;;;;3.50;3.50;;;;;7.93;100.00;102767.88;4973258;28;46394;-77
2023/02/02 07:17:43;;;;;;;;;2.75;1.00;;;;;7.97;100.00;102768.78;4972417;28;66787;-78
2023/02/02 07:20:09;;;;;;;;;2.00;0.75;;;;;7.99;100.00;102771.41;4974498;28;45339;-77
2023/02/02 07:22:37;;;;;;;;;4.50;0.50;;;;;8.01;100.00;102767.09;4972142;28;45679;-78
2023/02/02 07:25:03;;;;;;;;;0.75;0.75;;;;;8.02;100.00;102767.09;4973438;28;45461;-78
2023/02/02 07:27:28;;;;;;;;;1.75;0.75;;;;;8.01;100.00;102775.75;4974686;28;45430;-77
2023/02/02 07:29:54;;;;;;;;;1.00;1.00;;;;;8.02;100.00;102780.06;4975072;28;45520;-78
2023/02/02 07:32:19;;;;;;;;;4.50;1.75;;;;;8.02;100.00;102787.84;4974226;28;55873;-77
2023/02/02 07:34:44;;;;;;;;;1.75;0.50;;;;;8.05;100.00;102787.03;4974251;27;65205;-78
2023/02/02 07:37:10;;;;;;;;;4.25;1.25;;;;;8.04;100.00;102781.00;4974342;28;45422;-77
2023/02/02 07:39:35;;;;;;;;;2.75;1.00;;;;;8.07;100.00;102788.78;4974638;28;45398;-78
2023/02/02 07:42:00;;;;;;;;;0.00;0.00;;;;;8.09;100.00;102788.81;4974137;28;46742;-77
2023/02/02 07:44:26;;;;;;;;;3.75;1.25;;;;;8.09;100.00;102788.81;4974407;28;64407;-77
2023/02/02 07:46:51;;;;;;;;;2.00;2.00;;;;;8.11;100.00;102787.13;4973674;28;45412;-77
2023/02/02 07:49:18;;;;;;;;;1.25;0.75;;;;;8.17;100.00;102791.53;4973514;28;64378;-78
2023/02/02 07:51:44;;;;;;;;;1.00;1.00;;;;;8.22;100.00;102795.06;4973380;28;45447;-78
2023/02/02 07:54:09;;;;;;;;;4.00;2.00;;;;;8.23;100.00;102802.00;4973343;28;46008;-78
2023/02/02 07:56:36;;;;;;;;;4.25;2.00;;;;;8.25;100.00;102800.31;4974038;27;57676;-77
2023/02/02 07:59:02;;;;;;;;;5.50;1.00;;;;;8.26;100.00;102787.31;4980011;28;45773;-77
2023/02/02 08:01:27;;;;;;;;;2.00;1.00;;;;;8.30;100.00;102785.66;4974697;28;45317;-78
2023/02/02 08:03:54;;;;;;;;;4.00;1.00;;;;;8.32;100.00;102790.03;4974955;28;62771;-78
2023/02/02 08:06:22;;;;;;;;;1.00;1.00;;;;;8.33;100.00;102794.34;4974328;28;45362;-77
2023/02/02 08:08:47;;;;;;;;;5.25;1.00;;;;;8.35;100.00;102791.78;4974369;28;45293;-77
2023/02/02 08:11:14;;;;;;;;;5.00;2.00;;;;;8.39;100.00;102792.69;4973944;28;48246;-77
2023/02/02 08:13:40;;;;;;;;;2.50;0.00;;;;;8.42;100.00;102788.44;4974239;28;45838;-77
2023/02/02 08:16:06;;;;;;;;;3.00;1.00;;;;;8.44;100.00;102797.13;4973291;28;61632;-77
2023/02/02 08:18:33;;;;;;;;;1.00;1.00;;;;;8.45;100.00;102792.78;4973192;28;45386;-76
2023/02/02 08:20:59;;;;;;;;;1.25;1.00;;;;;8.48;100.00;102795.44;4973065;28;45447;-77
2023/02/02 08:23:25;;;;;;;;;4.75;1.00;;;;;8.49;100.00;102803.25;4973948;28;45521;-77
2023/02/02 08:25:50;;;;;;;;;1.00;1.00;;;;;8.51;100.00;102801.53;4973982;28;45631;-77
2023/02/02 08:28:16;;;;;;;;;3.75;1.50;;;;;8.53;100.00;102807.63;4974089;28;45805;-77
2023/02/02 08:30:42;;;;;;;;;1.00;0.00;;;;;8.56;100.00;102806.78;4972832;28;45605;-77
2023/02/02 08:33:07;;;;;;;;;3.50;0.50;;;;;8.63;100.00;102820.72;4972183;28;45453;-77
2023/02/02 08:35:32;;;;;;;;;1.00;1.00;;;;;8.66;100.00;102826.81;4974514;28;45498;-76
2023/02/02 08:38:01;;;;;;;;;1.00;1.00;;;;;8.70;100.00;102817.34;4977995;28;58979;-76
2023/02/02 08:40:27;;;;;;;;;5.25;1.00;;;;;8.73;100.00;102827.78;5036696;28;45338;-76
2023/02/02 08:42:53;;;;;;;;;0.00;0.00;;;;;8.77;100.00;102831.28;4972812;28;47282;-75
2023/02/02 08:45:19;;;;;;;;;4.25;1.00;;;;;8.80;100.00;102829.56;4979874;28;45321;-77
2023/02/02 08:47:44;;;;;;;;;4.50;0.50;;;;;8.85;100.00;102824.44;4973405;28;45349;-77
2023/02/02 08:50:10;;;;;;;;;2.00;1.00;;;;;8.85;100.00;102835.69;4971732;28;59925;-77
2023/02/02 08:52:35;;;;;;;;;0.00;0.00;;;;;8.85;100.00;102832.22;4987620;28;69613;-77
2023/02/02 08:55:01;;;;;;;;;0.00;0.00;;;;;8.83;100.00;102832.22;4987588;28;45480;-76
2023/02/02 08:57:27;;;;;;;;;1.75;0.75;;;;;8.84;100.00;102838.28;4986292;28;45363;-78
2023/02/02 08:59:52;;;;;;;;;2.25;1.00;;;;;8.88;100.00;102840.06;4977721;28;45583;-77
2023/02/02 09:02:17;;;;;;;;;3.50;1.00;;;;;8.90;100.00;102836.63;4986817;28;69958;-77
2023/02/02 09:04:45;;;;;;;;;2.00;1.00;;;;;8.96;100.00;102829.75;4972987;28;45491;-76
2023/02/02 09:07:11;;;;;;;;;1.00;1.00;;;;;8.97;100.00;102841.88;4991721;28;45394;-77
2023/02/02 09:09:36;;;;;;;;;5.50;1.00;;;;;8.99;100.00;102842.78;4970296;28;59350;-77
2023/02/02 09:12:01;;;;;;;;;1.75;1.00;;;;;9.02;100.00;102845.41;4997069;28;66459;-77
2023/02/02 09:14:28;;;;;;;;;2.00;1.00;;;;;9.02;100.00;102837.63;4991970;28;47252;-77
2023/02/02 09:16:53;;;;;;;;;2.25;1.00;;;;;9.06;100.00;102844.59;4997380;28;45416;-76
2023/02/02 09:19:18;;;;;;;;;2.00;1.00;;;;;9.07;100.00;102843.75;5085275;27;61775;-76
2023/02/02 09:21:44;;;;;;;;;0.00;0.00;;;;;9.09;100.00;102848.09;5083111;27;45403;-76
2023/02/02 09:24:11;;;;;;;;;2.00;0.75;;;;;9.11;100.00;102850.72;5091656;27;52135;-76
2023/02/02 09:26:39;;;;;;;;;1.25;0.75;;;;;9.14;100.00;102853.34;5066002;27;45368;-78
2023/02/02 09:29:06;;;;;;;;;1.00;1.00;;;;;9.20;100.00;102865.53;5085774;27;45392;-78
2023/02/02 09:31:35;;;;;;;;;1.00;0.75;;;;;9.22;100.00;102869.88;5078947;27;45529;-78
2023/02/02 09:34:06;;;;;;;;;1.00;1.00;;;;;9.25;100.00;102872.53;5094291;27;45784;-78
2023/02/02 09:36:32;;;;;;;;;5.50;2.25;;;;;9.26;100.00;102870.78;5081416;27;45379;-78
2023/02/02 09:38:57;;;;;;;;;2.75;1.00;;;;;9.28;100.00;102880.34;5056296;28;68049;-77
2023/02/02 09:41:50;;;;;;;;;1.00;1.00;;;;;9.34;100.00;102873.47;5062136;27;45473;-78
2023/02/02 09:44:33;;;;;;;;;1.00;0.00;;;;;9.39;100.00;102882.19;5062688;27;45547;-76
2023/02/02 09:47:23;;;;;;;;;2.00;1.00;;;;;9.44;100.00;102889.19;5084576;27;45283;-77
2023/02/02 09:50:08;;;;;;;;;2.00;2.00;;;;;9.51;100.00;102897.94;5067737;27;45532;-77
2023/02/02 09:52:40;;;;;;;;;2.00;2.00;;;;;9.56;100.00;102903.16;5076604;27;45505;-78
2023/02/02 09:55:13;;;;;;;;;2.25;2.00;;;;;9.57;100.00;102890.19;5082760;27;45363;-78
2023/02/02 09:57:43;;;;;;;;;6.00;2.00;;;;;9.61;100.00;102901.47;5066714;28;45431;-77
2023/02/02 10:00:23;;;;;;;;;2.00;1.75;;;;;9.58;100.00;102891.91;5086142;27;45707;-77
2023/02/02 10:02:50;;;;;;;;;1.50;1.50;;;;;9.63;100.00;102894.56;5086734;27;46123;-78
2023/02/02 10:05:19;;;;;;;;;2.50;1.75;;;;;9.66;100.00;102892.88;5067049;27;46224;-78
2023/02/02 10:07:49;;;;;;;;;0.00;0.00;;;;;9.72;100.00;102901.59;5059722;28;45384;-78
2023/02/02 10:10:26;;;;;;;;;2.00;1.00;;;;;9.76;100.00;102895.56;5060550;27;45425;-78
2023/02/02 10:13:05;;;;;;;;;0.75;0.75;;;;;9.82;100.00;102904.25;5063761;27;45542;-78
2023/02/02 10:15:37;;;;;;;;;1.00;1.00;;;;;9.84;100.00;102906.88;5057947;28;45861;-78
2023/02/02 10:18:18;;;;;;;;;1.25;1.00;;;;;9.87;100.00;102905.19;5073997;27;45486;-79
2023/02/02 10:20:56;;;;;;;;;2.00;0.75;;;;;9.92;100.00;102906.94;5065060;27;45309;-78
2023/02/02 10:23:40;;;;;;;;;3.00;0.00;;;;;9.97;100.00;102906.13;5059446;27;46430;-78
2023/02/02 10:26:19;;;;;;;;;1.00;0.00;;;;;10.01;100.00;102907.91;5063900;27;45873;-77
2023/02/02 10:28:47;;;;;;;;;3.00;1.00;;;;;10.09;100.00;102907.97;5083458;27;45406;-78
2023/02/02 10:31:24;;;;;;;;;3.00;2.00;;;;;10.13;100.00;102908.88;5079616;27;45592;-78
2023/02/02 10:34:02;;;;;;;;;2.00;0.75;;;;;10.20;100.00;102910.66;5050578;27;45474;-77
2023/02/02 10:36:57;;;;;;;;;2.00;1.50;;;;;10.25;100.00;102912.44;5071545;27;45563;-79
2023/02/02 10:39:37;;;;;;;;;2.00;1.00;;;;;10.31;100.00;102910.75;5090950;27;45380;-78
2023/02/02 10:42:15;;;;;;;;;4.00;1.00;;;;;10.31;100.00;102905.53;5078920;27;45544;-78
2023/02/02 10:45:02;;;;;;;;;1.00;1.00;;;;;10.34;100.00;102911.63;5090674;27;46852;-79
2023/02/02 10:47:31;;;;;;;;;2.00;1.00;;;;;10.39;100.00;102914.28;5063857;27;45403;-79
2023/02/02 10:50:11;;;;;;;;;1.00;1.00;;;;;10.41;100.00;102916.03;5065485;27;45484;-78
2023/02/02 10:52:39;;;;;;;;;0.00;0.00;;;;;10.44;100.00;102915.19;5076861;27;45401;-79
2023/02/02 10:55:32;;;;;;;;;2.75;2.75;;;;;10.54;100.00;102921.31;5072580;27;46382;-78
2023/02/02 10:58:10;;;;;;;;;0.75;0.75;;;;;10.65;100.00;102909.25;5076397;27;45462;-77
2023/02/02 11:00:45;;;;;;;;;4.50;0.75;;;;;10.79;100.00;102915.41;5091534;27;45458;-78
2023/02/02 11:03:12;;;;;;;;;2.50;0.00;;;;;10.85;100.00;102914.56;5070489;27;45421;-78
2023/02/02 11:08:37;;;;;;;;;1.00;0.75;;;;;11.03;100.00;102908.53;5075533;27;45700;-78
2023/02/02 11:11:21;;;;;;;;;1.25;1.25;;;;;11.12;100.00;102905.97;5074590;27;45474;-78
2023/02/02 11:14:17;;;;;;;;;1.25;1.00;;;;;11.20;100.00;102899.06;5087409;27;45444;-77
2023/02/02 11:16:44;;;;;;;;;0.00;0.00;;;;;11.29;100.00;102905.16;5057155;27;46127;-80
2023/02/02 11:19:18;;;;;;;;;0.00;0.00;;;;;11.37;100.00;102909.53;5080985;27;45667;-78
2023/02/02 11:21:47;;;;;;;;;4.00;0.75;;;;;11.39;100.00;102904.31;5077196;28;45391;-76
2023/02/02 11:24:13;;;;;;;;;0.50;0.00;;;;;11.38;100.00;102907.78;5062930;27;45371;-76
2023/02/02 11:26:44;;;;;;;;;1.00;1.00;;;;;11.37;100.00;102906.91;5074351;27;45409;-78
2023/02/02 11:29:14;;;;;;;;;1.00;1.00;;;;;11.45;100.00;102901.72;5069757;27;45703;-78
2023/02/02 11:31:39;;;;;;;;;1.00;1.00;;;;;11.47;100.00;102891.28;5067735;27;45751;-78
2023/02/02 11:34:14;;;;;;;;;1.00;0.00;;;;;11.54;100.00;102893.03;5089013;27;45363;-78
2023/02/02 11:36:39;;;;;;;;;0.00;0.00;;;;;11.62;100.00;102891.31;5084188;27;45472;-79
2023/02/02 11:39:23;;;;;;;;;0.50;0.25;;;;;11.76;100.00;102883.50;5082486;27;66947;-78
2023/02/02 11:41:50;;;;;;;;;2.50;1.00;;;;;11.93;100.00;102884.41;5069060;27;45743;-79